Time;durP1;ratioP1;P1;durP2;ratioP2;P2;SDS_P1;SDS_P2;PMS_P1;PMS_P2;Temp;Humidity;BMP_temperature;BMP_pressure;BME280_temperature;BME280_humidity;BME280_pressure;Samples;Min_cycle;Max_cycle;Signal;HPM_P1;HPM_P2
2022/05/02 00:00:55;;;;;;;2.85;1.90;;;13.30;99.80;;;;;;5031278;28;20449;-65
2022/05/02 00:03:21;;;;;;;5.97;2.60;;;13.30;99.90;;;;;;5031090;28;20036;-68
2022/05/02 00:05:47;;;;;;;3.38;2.15;;;13.30;99.50;;;;;;5003208;28;20056;-68
2022/05/02 00:08:13;;;;;;;6.07;3.20;;;13.30;99.40;;;;;;4992405;28;20014;-69
2022/05/02 00:10:39;;;;;;;2.95;2.17;;;13.30;99.40;;;;;;4990679;28;20092;-68
2022/05/02 00:13:06;;;;;;;6.07;2.22;;;13.30;98.30;;;;;;4989992;28;20018;-71
2022/05/02 00:15:33;;;;;;;6.25;2.42;;;13.30;98.60;;;;;;4990027;28;20028;-67
2022/05/02 00:17:59;;;;;;;3.47;1.90;;;13.30;98.10;;;;;;4990987;28;20031;-68
2022/05/02 00:20:29;;;;;;;6.78;2.45;;;13.40;97.20;;;;;;5029397;28;20095;-69
2022/05/02 00:22:56;;;;;;;3.95;2.03;;;13.40;96.60;;;;;;5016675;28;20022;-70
2022/05/02 00:25:22;;;;;;;8.40;2.20;;;13.50;96.40;;;;;;5008802;28;20026;-70
2022/05/02 00:27:48;;;;;;;4.47;2.35;;;13.50;96.00;;;;;;4992202;28;20019;-64
2022/05/02 00:30:15;;;;;;;4.65;2.58;;;13.50;96.30;;;;;;5006198;28;20087;-66
2022/05/02 00:32:42;;;;;;;7.57;3.20;;;13.50;95.90;;;;;;4993062;28;20429;-70
2022/05/02 00:35:09;;;;;;;4.28;2.20;;;13.50;95.00;;;;;;4990254;28;20145;-67
2022/05/02 00:37:38;;;;;;;5.30;2.00;;;13.60;94.10;;;;;;4989555;28;20026;-72
2022/05/02 00:40:06;;;;;;;4.50;1.90;;;13.70;94.10;;;;;;4990371;28;20021;-71
2022/05/02 00:42:32;;;;;;;5.35;1.92;;;13.70;93.60;;;;;;4990459;28;20181;-65
2022/05/02 00:44:58;;;;;;;4.38;2.15;;;13.80;93.30;;;;;;4994493;28;20549;-72
2022/05/02 00:47:24;;;;;;;6.82;2.60;;;13.80;93.00;;;;;;5032740;28;20026;-68
2022/05/02 00:49:50;;;;;;;8.55;3.63;;;13.80;93.70;;;;;;5034356;28;20104;-72
2022/05/02 00:52:17;;;;;;;6.78;2.20;;;13.80;93.20;;;;;;5014741;28;20034;-67
2022/05/02 00:54:44;;;;;;;4.40;2.40;;;13.80;92.40;;;;;;5015122;28;20058;-72
2022/05/02 00:57:15;;;;;;;4.85;2.33;;;13.80;92.20;;;;;;5014879;28;20488;-71
2022/05/02 00:59:41;;;;;;;8.75;3.95;;;13.80;92.30;;;;;;5015034;28;20029;-70
2022/05/02 01:02:10;;;;;;;14.02;4.90;;;13.80;92.90;;;;;;5014728;28;20022;-69
2022/05/02 01:04:36;;;;;;;10.85;3.53;;;13.80;92.60;;;;;;5014799;28;20028;-67
2022/05/02 01:07:08;;;;;;;7.40;2.92;;;13.80;92.80;;;;;;5014858;28;20029;-66
2022/05/02 01:09:38;;;;;;;7.28;2.72;;;13.70;93.10;;;;;;5014977;28;20109;-72
2022/05/02 01:12:05;;;;;;;3.65;2.10;;;13.70;93.90;;;;;;5014844;28;20030;-71
2022/05/02 01:14:35;;;;;;;7.07;2.50;;;13.70;94.80;;;;;;5014943;28;20088;-71
2022/05/02 01:17:05;;;;;;;4.57;2.13;;;13.60;95.50;;;;;;5014658;28;20045;-72
2022/05/02 01:19:31;;;;;;;4.43;2.10;;;13.60;95.30;;;;;;5013269;28;20041;-71
2022/05/02 01:21:57;;;;;;;3.55;1.98;;;13.60;95.60;;;;;;5014422;28;20032;-66
2022/05/02 01:24:33;;;;;;;3.08;2.03;;;13.60;95.40;;;;;;5014242;28;20057;-72
2022/05/02 01:26:59;;;;;;;3.85;1.90;;;13.60;94.90;;;;;;5014674;28;20041;-72
2022/05/02 01:29:25;;;;;;;2.92;1.88;;;13.60;94.20;;;;;;5014444;28;20026;-71
2022/05/02 01:31:54;;;;;;;5.32;2.05;;;13.60;94.30;;;;;;5014323;28;20037;-70
2022/05/02 01:34:20;;;;;;;3.78;1.85;;;13.70;93.60;;;;;;5014548;28;20029;-72
2022/05/02 01:36:46;;;;;;;4.25;2.00;;;13.70;93.80;;;;;;5014323;28;20476;-72
2022/05/02 01:39:12;;;;;;;7.68;2.30;;;13.70;93.40;;;;;;5013731;28;20026;-70
2022/05/02 01:41:38;;;;;;;6.85;2.95;;;13.70;93.00;;;;;;5014294;28;20112;-72
2022/05/02 01:44:03;;;;;;;5.70;2.22;;;13.70;93.60;;;;;;5014432;28;20488;-72
2022/05/02 01:46:29;;;;;;;5.53;2.35;;;13.70;95.30;;;;;;5013972;28;20593;-73
2022/05/02 01:48:57;;;;;;;3.53;2.15;;;13.60;96.20;;;;;;5014354;28;20293;-71
2022/05/02 01:51:24;;;;;;;2.63;1.90;;;13.50;96.00;;;;;;5014262;28;20029;-72
2022/05/02 01:53:50;;;;;;;6.32;2.15;;;13.50;95.60;;;;;;5013800;28;20583;-71
2022/05/02 01:56:16;;;;;;;4.00;1.92;;;13.40;96.10;;;;;;5013913;28;20045;-73
2022/05/02 01:58:42;;;;;;;3.65;2.10;;;13.40;96.90;;;;;;5013666;28;20032;-70
2022/05/02 02:01:08;;;;;;;6.05;2.05;;;13.30;96.40;;;;;;5014070;28;20484;-72
2022/05/02 02:03:33;;;;;;;3.92;2.22;;;13.30;97.00;;;;;;5014132;28;20018;-71
2022/05/02 02:06:00;;;;;;;4.18;2.30;;;13.30;97.00;;;;;;5013823;28;20033;-71
2022/05/02 02:08:31;;;;;;;3.47;2.10;;;13.20;97.30;;;;;;5013413;28;20124;-72
2022/05/02 02:11:03;;;;;;;6.28;2.42;;;13.20;97.30;;;;;;5013989;28;20447;-72
2022/05/02 02:13:30;;;;;;;6.93;2.53;;;13.20;96.80;;;;;;5013730;28;20018;-71
2022/05/02 02:15:56;;;;;;;5.60;2.70;;;13.10;97.20;;;;;;5013696;28;20828;-73
2022/05/02 02:18:22;;;;;;;3.17;2.13;;;13.10;97.00;;;;;;5013559;28;20042;-68
2022/05/02 02:20:51;;;;;;;2.70;1.92;;;13.10;97.50;;;;;;5013823;28;20068;-72
2022/05/02 02:23:17;;;;;;;4.55;2.00;;;13.10;96.50;;;;;;5012915;28;20398;-72
2022/05/02 02:25:43;;;;;;;4.35;2.28;;;13.10;96.90;;;;;;5013731;28;20022;-72
2022/05/02 02:28:09;;;;;;;4.43;1.92;;;13.00;98.00;;;;;;5013408;28;20034;-72
2022/05/02 02:30:36;;;;;;;5.90;2.67;;;12.90;97.90;;;;;;5013436;28;20018;-71
2022/05/02 02:33:02;;;;;;;3.75;2.00;;;12.90;99.00;;;;;;5013465;28;20049;-71
2022/05/02 02:35:29;;;;;;;6.03;2.38;;;12.90;99.20;;;;;;5013412;28;20033;-72
2022/05/02 02:37:55;;;;;;;6.45;2.08;;;12.80;99.90;;;;;;5012683;28;20499;-69
2022/05/02 02:40:21;;;;;;;4.75;2.67;;;12.80;99.90;;;;;;5013278;28;20030;-69
2022/05/02 02:42:47;;;;;;;5.93;2.63;;;12.70;99.90;;;;;;5012747;28;20037;-72
2022/05/02 02:45:13;;;;;;;3.70;2.47;;;12.60;99.90;;;;;;5012990;28;20042;-72
2022/05/02 02:47:39;;;;;;;4.82;2.40;;;12.60;99.90;;;;;;5013142;28;20484;-72
2022/05/02 02:50:06;;;;;;;6.25;2.45;;;12.60;99.90;;;;;;5013204;28;20026;-73
2022/05/02 02:52:32;;;;;;;5.45;2.50;;;12.50;99.90;;;;;;5012715;28;20095;-71
2022/05/02 02:54:57;;;;;;;4.55;2.60;;;12.50;99.90;;;;;;5013008;28;20544;-70
2022/05/02 02:57:23;;;;;;;3.35;2.47;;;12.50;99.90;;;;;;5012318;28;20042;-72
2022/05/02 02:59:50;;;;;;;6.80;3.17;;;12.50;99.90;;;;;;5012975;28;20026;-72
2022/05/02 03:02:16;;;;;;;9.25;3.50;;;12.40;99.90;;;;;;5012535;28;20022;-72
2022/05/02 03:07:27;;;;;;;5.88;2.80;;;12.40;99.90;;;;;;5012044;28;20030;-66
2022/05/02 03:09:54;;;;;;;5.00;2.70;;;12.30;99.90;;;;;;5011403;28;20034;-72
2022/05/02 03:12:21;;;;;;;5.45;2.58;;;12.30;99.90;;;;;;5012405;28;20022;-69
2022/05/02 03:14:46;;;;;;;9.38;3.00;;;12.40;99.90;;;;;;5012417;28;20030;-71
2022/05/02 03:17:12;;;;;;;5.47;3.47;;;12.40;99.90;;;;;;5012575;28;20550;-69
2022/05/02 03:19:39;;;;;;;4.50;2.70;;;12.50;99.90;;;;;;5012772;28;20029;-73
2022/05/02 03:22:06;;;;;;;4.28;2.45;;;12.50;99.90;;;;;;5012412;28;20064;-72
2022/05/02 03:24:32;;;;;;;7.07;3.22;;;12.50;99.90;;;;;;5012537;28;20026;-73
2022/05/02 03:26:58;;;;;;;5.50;2.67;;;12.60;99.90;;;;;;5012361;28;20041;-73
2022/05/02 03:29:24;;;;;;;5.07;2.58;;;12.60;99.90;;;;;;5012145;28;20026;-71
2022/05/02 03:31:49;;;;;;;9.05;3.10;;;12.70;99.90;;;;;;5012585;28;20158;-73
2022/05/02 03:34:15;;;;;;;4.40;2.72;;;12.60;99.90;;;;;;5012426;28;20014;-72
2022/05/02 03:36:41;;;;;;;6.97;2.60;;;12.60;99.90;;;;;;5011651;28;20439;-73
2022/05/02 03:39:07;;;;;;;7.95;3.72;;;12.60;99.90;;;;;;5012085;28;20036;-72
2022/05/02 03:41:33;;;;;;;11.38;4.45;;;12.60;99.90;;;;;;5012212;28;20489;-72
2022/05/02 03:43:59;;;;;;;6.35;3.67;;;12.80;99.90;;;;;;5012281;28;20094;-73
2022/05/02 03:46:25;;;;;;;7.53;4.13;;;13.00;99.90;;;;;;5011870;28;20112;-71
2022/05/02 03:48:51;;;;;;;9.50;4.15;;;13.10;99.90;;;;;;5012056;28;20103;-72
2022/05/02 03:51:18;;;;;;;6.95;3.40;;;13.10;99.90;;;;;;5012246;28;20022;-72
2022/05/02 03:53:44;;;;;;;7.55;3.08;;;13.20;99.90;;;;;;5011364;28;20031;-68
2022/05/02 03:56:10;;;;;;;7.75;3.53;;;13.40;99.90;;;;;;5011884;28;20049;-72
2022/05/02 03:58:36;;;;;;;6.45;3.05;;;13.30;99.70;;;;;;5012074;28;20025;-72
2022/05/02 04:01:02;;;;;;;8.07;3.55;;;13.50;99.90;;;;;;5011831;28;20415;-73
2022/05/02 04:03:28;;;;;;;5.22;3.10;;;13.50;99.90;;;;;;5011235;28;20524;-72
2022/05/02 04:05:54;;;;;;;5.45;2.78;;;13.30;99.90;;;;;;5011856;28;20117;-73
2022/05/02 04:08:20;;;;;;;6.15;2.90;;;13.00;99.90;;;;;;5011388;28;20026;-72
2022/05/02 04:10:46;;;;;;;12.30;3.08;;;12.90;99.90;;;;;;5011184;28;20030;-73
2022/05/02 04:13:12;;;;;;;5.43;2.97;;;12.80;99.90;;;;;;5011525;28;20080;-72
2022/05/02 04:15:38;;;;;;;6.55;3.17;;;12.70;99.90;;;;;;5011824;28;20029;-73
2022/05/02 04:18:04;;;;;;;7.18;2.97;;;12.70;99.90;;;;;;5011500;28;20697;-72
2022/05/02 04:20:30;;;;;;;4.50;2.70;;;12.70;99.90;;;;;;5011952;28;20030;-73
2022/05/02 04:22:56;;;;;;;4.60;2.92;;;12.70;99.90;;;;;;5015070;28;20428;-65
2022/05/02 04:25:22;;;;;;;4.28;2.72;;;12.80;99.90;;;;;;5014842;28;20026;-72
2022/05/02 04:27:48;;;;;;;7.30;3.05;;;12.70;99.90;;;;;;5025707;28;20494;-63
2022/05/02 04:30:14;;;;;;;5.57;2.80;;;12.70;99.90;;;;;;5028044;28;20053;-70
2022/05/02 04:32:39;;;;;;;7.60;3.47;;;12.70;99.90;;;;;;5015116;28;20536;-72
2022/05/02 04:35:06;;;;;;;6.22;3.22;;;12.70;99.90;;;;;;5014282;28;20132;-72
2022/05/02 04:37:32;;;;;;;8.85;3.08;;;12.60;99.90;;;;;;5014900;28;20045;-71
2022/05/02 04:39:58;;;;;;;8.50;3.45;;;12.60;99.90;;;;;;5015263;28;20029;-72
2022/05/02 04:42:24;;;;;;;5.50;2.88;;;12.60;99.90;;;;;;5015261;28;20067;-72
2022/05/02 04:44:50;;;;;;;7.10;3.22;;;12.60;99.90;;;;;;5015334;28;20160;-72
2022/05/02 04:47:16;;;;;;;4.55;2.60;;;12.80;99.90;;;;;;5014964;28;20022;-71
2022/05/02 04:49:42;;;;;;;4.38;2.42;;;12.70;99.90;;;;;;5015143;28;20041;-72
2022/05/02 04:52:08;;;;;;;6.68;2.90;;;12.90;99.90;;;;;;5015191;28;20026;-72
2022/05/02 04:54:34;;;;;;;5.05;3.03;;;13.00;99.90;;;;;;5015077;28;20032;-66
2022/05/02 04:56:59;;;;;;;6.43;2.97;;;13.20;99.90;;;;;;5017479;28;20099;-69
2022/05/02 04:59:25;;;;;;;5.40;3.10;;;13.40;99.90;;;;;;5034535;28;20033;-71
2022/05/02 05:01:51;;;;;;;3.97;2.63;;;13.60;99.90;;;;;;5024977;28;20036;-71
2022/05/02 05:04:17;;;;;;;7.03;3.60;;;13.50;99.90;;;;;;5014942;28;20030;-70
2022/05/02 05:06:43;;;;;;;5.75;2.90;;;13.50;99.90;;;;;;5014926;28;20065;-71
2022/05/02 05:09:09;;;;;;;5.95;2.90;;;13.50;99.90;;;;;;5014430;28;20026;-72
2022/05/02 05:12:06;;;;;;;5.25;2.80;;;13.80;99.90;;;;;;5014777;28;20034;-71
2022/05/02 05:18:08;;;;;;;6.13;3.00;;;14.00;99.90;;;;;;5034064;28;20045;-73
2022/05/02 05:21:08;;;;;;;5.97;2.88;;;13.90;99.90;;;;;;5034261;28;20049;-72
2022/05/02 05:23:59;;;;;;;4.97;2.70;;;14.10;99.90;;;;;;5033941;28;20079;-68
2022/05/02 05:27:03;;;;;;;5.63;2.53;;;14.20;99.90;;;;;;5016233;28;20395;-70
2022/05/02 05:29:50;;;;;;;6.07;2.47;;;14.20;99.90;;;;;;5015778;28;20018;-73
2022/05/02 05:32:23;;;;;;;8.68;2.95;;;14.10;99.90;;;;;;5012872;28;20088;-71
2022/05/02 05:35:04;;;;;;;4.85;2.30;;;14.20;99.90;;;;;;5013049;28;20029;-71
2022/05/02 05:38:09;;;;;;;3.05;2.00;;;14.20;99.90;;;;;;5013757;28;20400;-71
2022/05/02 05:40:38;;;;;;;5.85;2.67;;;14.10;99.90;;;;;;5013668;28;20093;-70
2022/05/02 05:43:18;;;;;;;6.18;2.65;;;14.20;99.90;;;;;;5014008;28;20076;-66
2022/05/02 05:46:02;;;;;;;4.38;2.55;;;14.20;99.90;;;;;;5013300;28;20037;-72
2022/05/02 05:48:47;;;;;;;6.90;3.38;;;14.20;99.90;;;;;;5013644;28;20100;-72
2022/05/02 05:51:29;;;;;;;6.10;2.60;;;14.50;99.90;;;;;;5013884;28;20595;-68
2022/05/02 05:54:33;;;;;;;4.75;2.47;;;14.60;99.90;;;;;;5013673;28;20088;-72
2022/05/02 05:57:20;;;;;;;14.18;2.45;;;14.80;99.90;;;;;;5013463;28;20041;-71
2022/05/02 06:00:09;;;;;;;6.00;2.85;;;15.00;98.70;;;;;;5013426;28;20025;-72
2022/05/02 06:02:56;;;;;;;3.67;2.42;;;15.00;96.90;;;;;;5013933;28;20037;-72
2022/05/02 06:05:23;;;;;;;19.23;3.63;;;15.10;98.40;;;;;;5013842;28;20048;-68
2022/05/02 06:07:51;;;;;;;7.53;3.47;;;15.10;96.90;;;;;;5013770;28;20030;-72
2022/05/02 06:10:18;;;;;;;6.20;2.70;;;15.00;99.60;;;;;;5012830;28;20495;-70
2022/05/02 06:12:46;;;;;;;6.05;2.72;;;15.10;97.20;;;;;;5013789;28;20472;-69
2022/05/02 06:20:45;;;;;;;5.95;3.05;;;15.50;97.40;;;;;;5013547;28;20651;-72
2022/05/02 06:23:15;;;;;;;5.45;3.03;;;15.40;99.90;;;;;;5014162;28;20351;-71
2022/05/02 06:25:50;;;;;;;4.75;2.85;;;15.50;97.80;;;;;;5021970;28;20065;-71
2022/05/02 06:28:27;;;;;;;4.53;2.35;;;15.80;99.90;;;;;;5006596;28;20126;-70
2022/05/02 06:30:59;;;;;;;4.57;1.90;;;16.00;97.10;;;;;;5014646;28;20474;-70
2022/05/02 06:33:27;;;;;;;5.88;2.40;;;16.00;95.30;;;;;;5022761;28;20151;-69
2022/05/02 06:36:27;;;;;;;8.13;2.92;;;16.10;94.70;;;;;;5011980;28;20042;-70
2022/05/02 06:39:16;;;;;;;7.43;3.60;;;15.90;94.20;;;;;;5013088;28;20041;-72
2022/05/02 06:42:16;;;;;;;6.93;3.70;;;15.80;96.70;;;;;;4990651;28;20046;-68
2022/05/02 06:45:06;;;;;;;2.38;2.17;;;16.00;96.30;;;;;;4990938;28;20030;-72
2022/05/02 06:47:50;;;;;;;10.48;4.82;;;15.80;96.00;;;;;;4991279;28;20066;-72
2022/05/02 06:50:18;;;;;;;13.15;6.20;;;15.80;95.90;;;;;;4991137;28;20488;-72
2022/05/02 06:52:49;;;;;;;6.10;3.17;;;16.30;97.00;;;;;;4990078;28;20039;-72
2022/05/02 06:55:24;;;;;;;5.03;2.67;;;16.50;94.20;;;;;;4990513;28;20428;-72
2022/05/02 06:58:30;;;;;;;4.95;2.97;;;16.60;93.80;;;;;;4990699;28;20132;-71
2022/05/02 07:01:05;;;;;;;4.53;3.30;;;16.80;94.50;;;;;;4990829;28;20591;-69
2022/05/02 07:03:52;;;;;;;3.00;2.25;;;17.40;94.10;;;;;;4988290;28;20030;-72
2022/05/02 07:06:27;;;;;;;5.95;3.65;;;17.40;90.80;;;;;;4976833;28;20519;-71
2022/05/02 07:09:04;;;;;;;6.68;3.05;;;17.70;90.90;;;;;;4973691;28;20435;-69
2022/05/02 07:12:05;;;;;;;24.23;16.25;;;17.30;88.90;;;;;;4988009;28;20038;-72
2022/05/02 07:14:52;;;;;;;7.97;4.82;;;17.50;90.10;;;;;;4930120;29;20036;-71
2022/05/02 07:17:42;;;;;;;5.13;2.90;;;17.60;88.70;;;;;;4929478;29;20032;-71
2022/05/02 07:20:18;;;;;;;7.43;3.05;;;17.70;85.90;;;;;;4966293;28;20469;-69
2022/05/02 07:23:07;;;;;;;6.55;2.50;;;18.30;87.00;;;;;;4970181;28;20214;-69
2022/05/02 07:25:37;;;;;;;7.15;2.90;;;18.40;80.80;;;;;;4960047;28;20039;-69
2022/05/02 07:28:18;;;;;;;4.40;2.55;;;18.70;82.10;;;;;;4970437;28;20499;-71
2022/05/02 07:30:46;;;;;;;2.30;1.85;;;18.80;78.60;;;;;;4970082;28;20043;-71
2022/05/02 07:33:12;;;;;;;6.38;2.58;;;19.00;79.20;;;;;;4970936;28;20057;-71
2022/05/02 07:35:40;;;;;;;3.90;2.42;;;19.10;73.80;;;;;;4970557;28;20039;-69
2022/05/02 07:38:07;;;;;;;3.65;2.20;;;19.20;76.30;;;;;;4970254;28;20042;-70
2022/05/02 07:40:34;;;;;;;3.15;2.15;;;19.10;73.90;;;;;;4970862;28;20046;-70
2022/05/02 07:43:00;;;;;;;3.78;1.85;;;19.20;71.60;;;;;;4970456;28;20030;-71
2022/05/02 07:45:31;;;;;;;5.18;2.53;;;19.30;74.80;;;;;;4970063;28;20090;-71
2022/05/02 07:48:04;;;;;;;3.63;2.15;;;19.40;73.20;;;;;;4970676;28;20137;-69
2022/05/02 07:50:31;;;;;;;4.53;2.15;;;19.60;71.50;;;;;;4974950;28;20073;-70
2022/05/02 07:52:59;;;;;;;4.47;2.13;;;19.70;74.40;;;;;;5011467;28;20026;-71
2022/05/02 07:55:25;;;;;;;4.13;2.10;;;19.70;72.70;;;;;;5010824;28;20022;-71
2022/05/02 07:57:51;;;;;;;2.72;1.60;;;20.00;74.80;;;;;;5010870;28;20361;-70
2022/05/02 08:00:17;;;;;;;7.40;2.17;;;19.80;69.40;;;;;;5011276;28;20022;-71
2022/05/02 08:02:43;;;;;;;5.95;1.88;;;19.60;70.90;;;;;;5011537;28;20030;-71
2022/05/02 08:05:10;;;;;;;7.20;2.20;;;19.90;72.50;;;;;;5016641;28;20101;-71
2022/05/02 08:07:38;;;;;;;10.13;3.60;;;20.00;71.10;;;;;;5010726;28;20022;-71
2022/05/02 08:10:23;;;;;;;5.15;2.95;;;19.40;69.90;;;;;;5011724;28;20468;-72
2022/05/02 08:13:01;;;;;;;4.28;1.73;;;19.30;69.30;;;;;;5011637;28;20380;-71
2022/05/02 08:15:45;;;;;;;2.67;1.88;;;19.80;72.90;;;;;;5011364;28;20488;-69
2022/05/02 08:18:37;;;;;;;2.53;1.90;;;19.90;69.20;;;;;;5000944;28;20105;-71
2022/05/02 08:21:19;;;;;;;3.13;2.17;;;20.00;68.60;;;;;;5006321;28;20025;-68
2022/05/02 08:27:17;;;;;;;3.10;1.70;;;20.10;68.90;;;;;;5010671;28;20038;-70
2022/05/02 08:30:01;;;;;;;4.75;2.25;;;20.00;69.00;;;;;;4991690;28;20130;-72
2022/05/02 08:33:05;;;;;;;3.05;1.92;;;19.80;68.70;;;;;;4991922;28;20441;-68
2022/05/02 08:35:50;;;;;;;5.53;2.15;;;20.10;72.10;;;;;;5010016;28;20022;-70
2022/05/02 08:38:21;;;;;;;4.70;2.60;;;19.70;66.60;;;;;;5010362;28;20062;-68
2022/05/02 08:40:53;;;;;;;9.57;2.58;;;19.70;67.10;;;;;;5010879;28;20030;-70
2022/05/02 08:43:37;;;;;;;6.43;2.05;;;19.80;68.80;;;;;;5009707;28;20033;-70
2022/05/02 08:46:34;;;;;;;3.20;2.20;;;19.80;68.30;;;;;;5010860;28;20046;-70
2022/05/02 08:49:35;;;;;;;4.78;2.42;;;19.80;67.20;;;;;;5011512;28;20444;-71
2022/05/02 08:52:24;;;;;;;5.70;2.30;;;20.10;67.00;;;;;;5011112;28;20087;-70
2022/05/02 08:55:11;;;;;;;6.65;2.22;;;19.80;67.60;;;;;;5010367;28;20029;-69
2022/05/02 08:57:46;;;;;;;4.25;1.83;;;20.10;68.30;;;;;;5008217;28;20476;-68
2022/05/02 09:00:40;;;;;;;6.90;2.30;;;19.80;66.70;;;;;;5009422;28;20042;-71
2022/05/02 09:03:34;;;;;;;3.42;2.20;;;19.90;67.90;;;;;;5008881;28;20030;-70
2022/05/02 09:06:36;;;;;;;4.53;2.35;;;20.00;67.90;;;;;;5010690;28;20432;-69
2022/05/02 09:09:20;;;;;;;3.58;2.08;;;19.70;66.50;;;;;;5012920;28;20021;-67
2022/05/02 09:12:00;;;;;;;3.67;2.45;;;20.00;66.30;;;;;;5011928;28;20026;-69
2022/05/02 09:14:59;;;;;;;3.58;2.10;;;20.10;68.00;;;;;;5012447;28;20022;-70
2022/05/02 09:18:03;;;;;;;4.22;2.15;;;20.30;67.70;;;;;;5013536;28;20030;-68
2022/05/02 09:20:49;;;;;;;3.60;2.22;;;20.50;67.70;;;;;;4994986;28;20126;-70
2022/05/02 09:23:39;;;;;;;5.30;2.55;;;19.90;65.50;;;;;;5000933;28;20072;-70
2022/05/02 09:26:33;;;;;;;5.40;2.30;;;20.20;68.10;;;;;;5013708;28;20033;-69
2022/05/02 09:29:27;;;;;;;6.32;2.30;;;19.70;66.00;;;;;;4993879;28;20030;-68
2022/05/02 09:32:00;;;;;;;5.70;3.40;;;20.00;66.00;;;;;;4994401;28;20096;-69
2022/05/02 09:34:35;;;;;;;6.40;2.38;;;20.10;67.70;;;;;;5012327;28;20040;-71
2022/05/02 09:37:28;;;;;;;6.78;2.38;;;20.30;67.30;;;;;;5013637;28;20043;-71
2022/05/02 09:40:07;;;;;;;4.50;2.58;;;20.00;66.60;;;;;;5012269;28;20038;-66
2022/05/02 09:42:48;;;;;;;3.47;1.90;;;20.30;67.60;;;;;;5013689;28;20021;-70
2022/05/02 09:51:31;;;;;;;13.50;6.57;;;20.60;65.80;;;;;;5033748;28;20403;-72
2022/05/02 09:56:37;;;;;;;3.50;2.05;;;20.40;64.20;;;;;;5032781;28;20049;-71
2022/05/02 09:57:15;;;;;;;11.35;6.03;;;20.90;65.90;;;;;;5013504;28;20561;-69
2022/05/02 09:59:47;;;;;;;15.35;3.17;;;21.20;63.80;;;;;;5013446;28;20054;-71
2022/05/02 10:02:21;;;;;;;47.80;18.02;;;21.30;64.90;;;;;;5012907;28;20492;-71
2022/05/02 10:05:06;;;;;;;10.77;3.05;;;21.30;63.70;;;;;;5024205;28;20037;-71
2022/05/02 10:07:40;;;;;;;5.03;2.50;;;21.40;64.70;;;;;;5014790;28;20037;-70
2022/05/02 10:10:30;;;;;;;5.82;2.78;;;21.50;63.90;;;;;;5011879;28;20036;-71
2022/05/02 10:13:13;;;;;;;5.43;2.67;;;21.30;62.40;;;;;;5018213;28;20112;-68
2022/05/02 10:16:25;;;;;;;13.02;5.43;;;21.40;64.00;;;;;;5021016;28;20497;-67
2022/05/02 10:19:18;;;;;;;11.07;3.95;;;21.30;64.50;;;;;;4953124;28;20464;-68
2022/05/02 10:22:16;;;;;;;8.20;2.83;;;21.50;63.40;;;;;;4961513;28;20215;-69
2022/05/02 10:24:44;;;;;;;19.80;4.07;;;21.60;62.80;;;;;;4971493;28;20629;-71
2022/05/02 10:27:43;;;;;;;6.03;2.90;;;21.60;61.80;;;;;;4952779;28;20075;-70
2022/05/02 10:30:12;;;;;;;5.47;2.78;;;21.70;61.20;;;;;;4957314;28;20035;-71
2022/05/02 10:32:56;;;;;;;13.20;2.83;;;22.00;62.50;;;;;;4953272;28;20042;-70
2022/05/02 10:35:27;;;;;;;5.63;2.33;;;21.90;60.00;;;;;;4948662;28;20036;-70
2022/05/02 10:38:03;;;;;;;8.55;2.75;;;21.90;61.10;;;;;;4953584;28;20039;-68
2022/05/02 10:40:34;;;;;;;4.75;1.98;;;21.90;58.10;;;;;;4954373;28;20041;-71
2022/05/02 10:43:04;;;;;;;4.30;2.13;;;22.00;58.70;;;;;;4952179;28;20126;-70
2022/05/02 10:45:35;;;;;;;4.07;2.40;;;22.00;57.80;;;;;;4951289;28;20061;-71
2022/05/02 10:48:22;;;;;;;5.18;2.10;;;22.10;59.30;;;;;;4953305;28;20039;-71
2022/05/02 10:51:05;;;;;;;5.55;2.20;;;22.00;59.00;;;;;;4950511;28;20529;-72
2022/05/02 10:53:49;;;;;;;;;;;21.80;59.50;;;;;;4957610;28;20056;-67
2022/05/02 10:56:22;;;;;;;3.80;2.00;;;21.80;59.90;;;;;;5010335;28;20363;-71
2022/05/02 10:58:48;;;;;;;6.25;1.90;;;21.60;61.00;;;;;;5031527;28;20057;-71
2022/05/02 11:01:35;;;;;;;3.60;1.95;;;21.40;59.90;;;;;;5011976;28;20054;-71
2022/05/02 11:04:16;;;;;;;15.55;3.03;;;21.20;60.40;;;;;;5021068;28;20021;-72
2022/05/02 11:07:01;;;;;;;5.43;2.60;;;21.50;62.10;;;;;;5031939;28;20044;-70
2022/05/02 11:09:54;;;;;;;3.70;2.53;;;21.20;60.70;;;;;;5031593;28;20029;-68
2022/05/02 11:12:22;;;;;;;6.85;3.42;;;21.00;62.20;;;;;;5018295;28;20037;-72
2022/05/02 11:14:59;;;;;;;6.75;3.47;;;21.10;63.30;;;;;;5012284;28;20030;-70
2022/05/02 11:17:54;;;;;;;12.25;4.85;;;21.20;61.60;;;;;;5012111;28;20484;-72
2022/05/02 11:20:45;;;;;;;5.53;3.60;;;21.30;61.40;;;;;;5007329;28;20045;-72
2022/05/02 11:23:30;;;;;;;3.33;2.33;;;21.20;63.30;;;;;;5012253;28;20491;-72
2022/05/02 11:26:33;;;;;;;3.63;2.40;;;20.80;63.30;;;;;;5011860;28;20486;-73
2022/05/02 11:29:10;;;;;;;7.15;2.90;;;20.40;61.80;;;;;;5011613;28;20109;-73
2022/05/02 11:31:50;;;;;;;10.43;3.90;;;20.50;62.50;;;;;;5010929;28;20048;-73
2022/05/02 11:34:28;;;;;;;10.73;4.95;;;20.40;63.10;;;;;;5011749;28;20030;-69
2022/05/02 11:36:58;;;;;;;5.85;2.97;;;20.50;63.40;;;;;;5011416;28;20041;-72
2022/05/02 11:39:48;;;;;;;6.68;3.00;;;20.70;65.50;;;;;;5011806;28;20361;-72
2022/05/02 11:42:18;;;;;;;3.72;2.03;;;20.80;63.50;;;;;;5011713;28;20026;-72
2022/05/02 11:45:10;;;;;;;5.18;2.72;;;21.10;62.00;;;;;;5011487;28;20062;-71
2022/05/02 11:48:00;;;;;;;5.60;2.70;;;21.40;64.70;;;;;;5011861;28;20026;-72
2022/05/02 11:50:28;;;;;;;4.80;2.53;;;21.50;62.50;;;;;;5011791;28;20051;-73
2022/05/02 11:52:59;;;;;;;11.18;2.90;;;21.50;61.90;;;;;;5011680;28;20018;-72
2022/05/02 11:55:34;;;;;;;12.27;2.63;;;22.10;64.80;;;;;;5011572;28;20033;-72
2022/05/02 11:58:13;;;;;;;8.75;2.85;;;22.40;61.80;;;;;;5011334;28;20041;-72
2022/05/02 12:00:43;;;;;;;4.47;2.33;;;22.30;57.30;;;;;;5011953;28;20383;-72
2022/05/02 12:03:18;;;;;;;6.22;1.90;;;22.10;57.70;;;;;;5011882;28;20030;-71
2022/05/02 12:05:55;;;;;;;5.65;2.10;;;22.10;60.10;;;;;;5011558;28;20073;-71
2022/05/02 12:08:36;;;;;;;6.22;2.63;;;22.00;59.00;;;;;;5011423;28;20040;-72
2022/05/02 12:11:11;;;;;;;8.32;3.95;;;22.20;57.30;;;;;;5011669;28;20026;-71
2022/05/02 12:13:47;;;;;;;7.65;3.70;;;21.90;56.60;;;;;;5011893;28;20060;-72
2022/05/02 12:16:15;;;;;;;3.30;2.47;;;21.90;56.40;;;;;;5011549;28;20100;-72
2022/05/02 12:18:53;;;;;;;6.28;2.60;;;22.10;59.00;;;;;;5011687;28;20026;-72
2022/05/02 12:21:48;;;;;;;7.85;2.38;;;21.70;57.10;;;;;;5011776;28;20044;-72
2022/05/02 12:24:28;;;;;;;6.05;2.38;;;21.90;57.00;;;;;;5009373;28;20125;-72
2022/05/02 12:26:56;;;;;;;5.75;2.45;;;22.00;57.60;;;;;;5011432;28;20026;-73
2022/05/02 12:29:23;;;;;;;6.90;2.47;;;22.00;57.00;;;;;;5011464;28;20026;-72
2022/05/02 12:31:58;;;;;;;5.28;2.65;;;21.90;56.60;;;;;;5006452;28;20097;-72
2022/05/02 12:34:42;;;;;;;9.45;2.10;;;21.90;56.80;;;;;;5009434;28;20117;-73
2022/05/02 12:37:32;;;;;;;4.72;2.03;;;21.80;56.00;;;;;;5011286;28;20395;-72
2022/05/02 12:40:09;;;;;;;4.13;2.05;;;21.50;53.20;;;;;;5010933;28;20058;-70
2022/05/02 12:42:48;;;;;;;5.20;2.25;;;21.60;55.60;;;;;;5013211;28;20030;-69
2022/05/02 12:45:17;;;;;;;3.22;1.77;;;21.50;53.10;;;;;;5014550;28;20077;-70
2022/05/02 12:48:07;;;;;;;6.05;2.75;;;21.40;52.90;;;;;;5015360;28;20021;-72
2022/05/02 12:50:44;;;;;;;5.53;2.13;;;21.50;53.70;;;;;;5015030;28;20034;-70
2022/05/02 12:54:09;;;;;;;5.05;1.60;;;21.50;52.50;;;;;;5015037;28;20060;-67
2022/05/02 12:56:09;;;;;;;3.25;1.88;;;21.40;52.50;;;;;;5014020;28;20034;-71
2022/05/02 13:01:24;;;;;;;4.80;1.58;;;21.30;50.10;;;;;;5014832;28;20037;-67
2022/05/02 13:03:57;;;;;;;2.72;1.42;;;21.20;51.60;;;;;;5015042;28;20029;-71
2022/05/02 13:06:24;;;;;;;2.95;1.48;;;21.20;51.20;;;;;;5014211;28;20420;-71
2022/05/02 13:09:06;;;;;;;4.20;1.75;;;21.20;51.50;;;;;;5014343;28;20018;-71
2022/05/02 13:11:37;;;;;;;4.32;1.77;;;21.20;53.60;;;;;;5014512;28;20448;-64
2022/05/02 13:14:03;;;;;;;2.53;1.60;;;21.30;52.50;;;;;;5014682;28;20046;-71
2022/05/02 13:16:38;;;;;;;2.63;1.65;;;21.10;53.60;;;;;;5013661;28;20065;-71
2022/05/02 13:19:06;;;;;;;2.47;1.50;;;21.20;52.20;;;;;;5014482;28;20022;-71
2022/05/02 13:21:33;;;;;;;5.63;2.08;;;21.20;52.00;;;;;;5013959;28;20018;-71
2022/05/02 13:24:10;;;;;;;7.65;2.00;;;21.20;52.90;;;;;;5014164;28;20034;-71
2022/05/02 13:27:11;;;;;;;3.13;1.85;;;21.30;54.70;;;;;;5014252;28;20026;-71
2022/05/02 13:29:55;;;;;;;5.05;1.60;;;21.20;52.90;;;;;;5012603;28;20030;-72
2022/05/02 13:32:33;;;;;;;2.75;1.85;;;21.40;53.00;;;;;;5011310;28;20065;-72
2022/05/02 13:35:20;;;;;;;4.90;1.52;;;20.90;50.10;;;;;;5013617;28;20108;-72
2022/05/02 13:38:10;;;;;;;3.60;1.63;;;21.00;51.70;;;;;;5013581;28;20492;-69
2022/05/02 13:41:15;;;;;;;5.32;1.73;;;21.10;51.10;;;;;;5013996;28;20583;-71
2022/05/02 13:44:05;;;;;;;3.45;1.65;;;21.10;51.30;;;;;;5000660;28;20092;-71
2022/05/02 13:46:46;;;;;;;5.43;2.30;;;21.30;51.70;;;;;;5014972;28;20045;-72
2022/05/02 13:49:42;;;;;;;5.35;1.73;;;21.20;51.70;;;;;;5013749;28;20054;-71